createdAt,value
2022-08-29T00:01:10.351Z,19.00
2022-08-29T00:03:37.539Z,19.00
2022-08-29T00:06:05.175Z,18.90
2022-08-29T00:08:32.129Z,18.90
2022-08-29T00:10:59.210Z,18.90
2022-08-29T00:13:27.664Z,18.90
2022-08-29T00:15:54.698Z,18.90
2022-08-29T00:18:21.652Z,18.80
2022-08-29T00:20:48.843Z,18.80
2022-08-29T00:23:15.940Z,18.70
2022-08-29T00:25:43.147Z,18.70
2022-08-29T00:28:10.166Z,18.70
2022-08-29T00:30:37.597Z,18.60
2022-08-29T00:33:04.628Z,18.60
2022-08-29T00:35:35.287Z,18.60
2022-08-29T00:38:03.697Z,18.50
2022-08-29T00:40:51.163Z,18.50
2022-08-29T00:43:24.760Z,18.50
2022-08-29T00:46:09.299Z,18.50
2022-08-29T00:48:38.383Z,18.50
2022-08-29T00:51:09.225Z,18.40
2022-08-29T00:53:40.064Z,18.40
2022-08-29T00:56:08.729Z,18.40
2022-08-29T00:58:41.584Z,18.30
2022-08-29T01:01:09.160Z,18.40
2022-08-29T01:03:42.681Z,18.30
2022-08-29T01:06:11.415Z,18.30
2022-08-29T01:08:38.373Z,18.30
2022-08-29T01:11:24.116Z,18.20
2022-08-29T01:13:53.041Z,18.20
2022-08-29T01:16:21.234Z,18.20
2022-08-29T01:18:53.454Z,18.20
2022-08-29T01:21:36.593Z,18.10
2022-08-29T01:24:15.479Z,18.10
2022-08-29T01:26:44.628Z,18.10
2022-08-29T01:29:12.062Z,18.00
2022-08-29T01:31:56.077Z,18.00
2022-08-29T01:34:27.410Z,18.00
2022-08-29T01:37:05.960Z,18.00
2022-08-29T01:39:36.068Z,18.10
2022-08-29T01:42:13.146Z,18.00
2022-08-29T01:44:41.701Z,18.00
2022-08-29T01:47:09.761Z,18.00
2022-08-29T01:49:40.833Z,18.00
2022-08-29T01:52:08.385Z,18.00
2022-08-29T01:54:35.498Z,18.00
2022-08-29T01:57:02.809Z,18.00
2022-08-29T01:59:31.291Z,18.00
2022-08-29T02:02:09.341Z,18.00
2022-08-29T02:04:36.379Z,18.00
2022-08-29T02:07:03.960Z,18.00
2022-08-29T02:09:31.098Z,18.00
2022-08-29T02:12:00.332Z,17.90
2022-08-29T02:14:27.292Z,17.90
2022-08-29T02:16:54.200Z,17.90
2022-08-29T02:19:21.337Z,17.80
2022-08-29T02:21:48.368Z,17.70
2022-08-29T02:24:26.281Z,17.70
2022-08-29T02:26:56.167Z,17.70
2022-08-29T02:29:24.281Z,17.70
2022-08-29T02:31:51.975Z,17.70
2022-08-29T02:34:19.185Z,17.60
2022-08-29T02:36:49.151Z,17.60
2022-08-29T02:39:16.894Z,17.60
2022-08-29T02:41:44.449Z,17.60
2022-08-29T02:44:11.887Z,17.60
2022-08-29T02:46:39.020Z,17.60
2022-08-29T02:49:06.520Z,17.60
2022-08-29T02:51:35.530Z,17.60
2022-08-29T02:54:03.644Z,17.60
2022-08-29T02:56:31.163Z,17.60
2022-08-29T02:58:58.680Z,17.60
2022-08-29T03:01:26.322Z,17.60
2022-08-29T03:03:53.830Z,17.50
2022-08-29T03:06:21.352Z,17.50
2022-08-29T03:08:48.568Z,17.50
2022-08-29T03:11:17.389Z,17.50
2022-08-29T03:13:45.556Z,17.50
2022-08-29T03:16:13.728Z,17.50
2022-08-29T03:18:40.998Z,17.40
2022-08-29T03:21:20.424Z,17.40
2022-08-29T03:23:49.376Z,17.40
2022-08-29T03:26:16.929Z,17.40
2022-08-29T03:28:44.388Z,17.40
2022-08-29T03:31:11.630Z,17.30
2022-08-29T03:33:39.291Z,17.30
2022-08-29T03:36:13.698Z,17.40
2022-08-29T03:38:43.751Z,17.30
2022-08-29T03:41:11.167Z,17.30
2022-08-29T03:43:38.549Z,17.30
2022-08-29T03:46:05.698Z,17.30
2022-08-29T03:48:33.874Z,17.30
2022-08-29T03:51:01.010Z,17.20
2022-08-29T03:53:28.375Z,17.20
2022-08-29T03:55:57.753Z,17.20
2022-08-29T03:58:25.254Z,17.20
2022-08-29T04:00:52.343Z,17.20
2022-08-29T04:03:21.954Z,17.20
2022-08-29T04:05:52.300Z,17.20
2022-08-29T04:08:22.397Z,17.20
2022-08-29T04:10:49.314Z,17.10
2022-08-29T04:13:16.232Z,17.10
2022-08-29T04:15:43.827Z,17.10
2022-08-29T04:18:11.758Z,17.10
2022-08-29T04:20:44.981Z,17.10
2022-08-29T04:23:13.378Z,17.00
2022-08-29T04:25:43.314Z,17.00
2022-08-29T04:28:12.876Z,17.00
2022-08-29T04:30:49.917Z,17.00
2022-08-29T04:33:22.754Z,17.00
2022-08-29T04:35:53.131Z,17.00
2022-08-29T04:38:22.096Z,17.00
2022-08-29T04:40:48.981Z,16.90
2022-08-29T04:43:16.994Z,16.90
2022-08-29T04:45:43.991Z,16.90
2022-08-29T04:48:11.977Z,16.90
2022-08-29T04:50:41.925Z,16.90
2022-08-29T04:53:08.887Z,16.90
2022-08-29T04:55:41.939Z,16.90
2022-08-29T04:58:14.427Z,16.90
2022-08-29T05:00:46.108Z,16.90
2022-08-29T05:03:13.088Z,16.80
2022-08-29T05:05:41.146Z,16.80
2022-08-29T05:08:11.526Z,16.70
2022-08-29T05:10:38.994Z,16.70
2022-08-29T05:13:05.984Z,16.70
2022-08-29T05:15:34.996Z,16.70
2022-08-29T05:18:05.188Z,16.60
2022-08-29T05:20:35.357Z,16.50
2022-08-29T05:23:02.383Z,16.50
2022-08-29T05:25:32.443Z,16.40
2022-08-29T05:28:02.918Z,16.40
2022-08-29T05:30:35.010Z,16.40
2022-08-29T05:33:02.796Z,16.40
2022-08-29T05:35:32.863Z,16.40
2022-08-29T05:38:07.108Z,16.40
2022-08-29T05:40:38.141Z,16.40
2022-08-29T05:43:07.588Z,16.40
2022-08-29T05:45:34.482Z,16.40
2022-08-29T05:48:06.973Z,16.50
2022-08-29T05:50:39.816Z,16.50
2022-08-29T05:53:06.798Z,16.60
2022-08-29T05:55:42.846Z,16.60
2022-08-29T05:58:11.765Z,16.70
2022-08-29T06:00:43.941Z,16.80
2022-08-29T06:03:11.669Z,16.80
2022-08-29T06:05:39.500Z,16.90
2022-08-29T06:08:07.624Z,16.90
2022-08-29T06:10:39.296Z,17.00
2022-08-29T06:13:06.176Z,17.00
2022-08-29T06:15:33.689Z,17.00
2022-08-29T06:18:00.693Z,17.00
2022-08-29T06:20:27.770Z,17.00
2022-08-29T06:22:54.767Z,17.00
2022-08-29T06:25:38.555Z,17.00
2022-08-29T06:28:06.452Z,17.10
2022-08-29T06:30:34.025Z,17.10
2022-08-29T06:33:02.207Z,17.20
2022-08-29T06:35:29.489Z,17.30
2022-08-29T06:37:56.470Z,17.40
2022-08-29T06:40:23.513Z,17.50
2022-08-29T06:42:50.584Z,17.60
2022-08-29T06:45:17.796Z,17.60
2022-08-29T06:47:47.852Z,17.70
2022-08-29T06:50:16.451Z,17.80
2022-08-29T06:52:43.559Z,17.90
2022-08-29T06:55:14.820Z,18.00
2022-08-29T06:57:43.025Z,18.10
2022-08-29T07:00:22.388Z,18.40
2022-08-29T07:02:51.707Z,18.80
2022-08-29T07:05:20.250Z,19.20
2022-08-29T07:07:47.186Z,19.30
2022-08-29T07:10:18.698Z,19.40
2022-08-29T07:12:49.866Z,19.50
2022-08-29T07:15:16.912Z,19.60
2022-08-29T07:17:43.871Z,19.80
2022-08-29T07:20:11.401Z,20.00
2022-08-29T07:22:39.340Z,20.20
2022-08-29T07:25:08.410Z,20.20
2022-08-29T07:27:35.721Z,20.30
2022-08-29T07:30:05.555Z,20.30
2022-08-29T07:32:32.723Z,20.30
2022-08-29T07:35:00.747Z,20.40
2022-08-29T07:37:27.913Z,20.60
2022-08-29T07:39:56.830Z,20.70
2022-08-29T07:42:25.921Z,21.00
2022-08-29T07:44:55.017Z,21.40
2022-08-29T07:47:26.654Z,21.50
2022-08-29T07:49:53.708Z,21.50
2022-08-29T07:52:20.923Z,21.50
2022-08-29T07:54:49.889Z,21.60
2022-08-29T07:57:18.330Z,21.80
2022-08-29T07:59:45.412Z,21.90
2022-08-29T08:02:13.581Z,21.80
2022-08-29T08:04:40.863Z,22.00
2022-08-29T08:07:14.000Z,22.30
2022-08-29T08:09:44.961Z,22.30
2022-08-29T08:12:12.464Z,22.20
2022-08-29T08:14:39.444Z,22.10
2022-08-29T08:17:06.497Z,22.00
2022-08-29T08:19:34.586Z,22.00
2022-08-29T08:22:02.489Z,22.10
2022-08-29T08:24:29.424Z,22.50
2022-08-29T08:26:58.115Z,22.90
2022-08-29T08:29:25.171Z,23.30
2022-08-29T08:31:52.636Z,23.30
2022-08-29T08:34:20.223Z,23.40
2022-08-29T08:36:47.348Z,23.70
2022-08-29T08:39:16.430Z,23.90
2022-08-29T08:41:54.813Z,23.90
2022-08-29T08:44:21.746Z,24.00
2022-08-29T08:46:52.621Z,24.30
2022-08-29T08:49:39.212Z,24.80
2022-08-29T08:52:16.374Z,25.10
2022-08-29T08:55:02.050Z,25.20
2022-08-29T08:57:44.469Z,25.20
2022-08-29T09:00:14.672Z,25.30
2022-08-29T09:03:05.430Z,25.50
2022-08-29T09:05:49.234Z,25.80
2022-08-29T09:08:35.116Z,26.00
2022-08-29T09:11:36.555Z,26.40
2022-08-29T09:16:58.979Z,27.10
2022-08-29T09:19:27.048Z,27.40
2022-08-29T09:22:08.264Z,27.60
2022-08-29T09:24:51.323Z,27.70
2022-08-29T09:27:24.766Z,27.90
2022-08-29T09:30:09.270Z,28.00
2022-08-29T09:33:00.832Z,28.10
2022-08-29T09:35:51.971Z,28.10
2022-08-29T09:38:25.295Z,28.00
2022-08-29T09:40:58.823Z,27.90
2022-08-29T09:43:28.671Z,27.70
2022-08-29T09:46:07.270Z,27.50
2022-08-29T09:48:41.170Z,27.50
2022-08-29T09:51:24.683Z,27.70
2022-08-29T09:54:10.001Z,27.80
2022-08-29T09:56:48.285Z,28.00
2022-08-29T09:59:23.132Z,28.10
2022-08-29T10:02:28.446Z,28.20
2022-08-29T10:05:02.129Z,28.40
2022-08-29T10:07:55.664Z,28.50
2022-08-29T10:10:27.355Z,28.60
2022-08-29T10:13:21.277Z,28.60
2022-08-29T10:15:59.229Z,28.70
2022-08-29T10:18:51.089Z,28.80
2022-08-29T10:21:20.436Z,29.00
2022-08-29T10:24:15.941Z,29.30
2022-08-29T10:26:55.003Z,29.50
2022-08-29T10:29:36.995Z,29.70
2022-08-29T10:32:29.291Z,29.80
2022-08-29T10:35:15.772Z,29.80
2022-08-29T10:37:57.453Z,29.80
2022-08-29T10:40:47.458Z,29.60
2022-08-29T10:44:08.569Z,29.60
2022-08-29T10:47:02.506Z,29.70
2022-08-29T10:49:31.508Z,29.90
2022-08-29T10:52:23.230Z,30.00
2022-08-29T10:55:11.047Z,30.30
2022-08-29T10:58:01.162Z,30.40
2022-08-29T11:00:46.644Z,30.50
2022-08-29T11:03:40.460Z,30.50
2022-08-29T11:06:33.143Z,30.60
2022-08-29T11:09:18.875Z,30.70
2022-08-29T11:12:04.093Z,30.70
2022-08-29T11:14:43.828Z,30.90
2022-08-29T11:17:13.242Z,31.00
2022-08-29T11:20:11.768Z,31.00
2022-08-29T11:23:01.808Z,31.00
2022-08-29T11:25:30.159Z,30.90
2022-08-29T11:28:28.414Z,30.90
2022-08-29T11:31:16.017Z,31.00
2022-08-29T11:34:09.659Z,31.00
2022-08-29T11:36:43.543Z,30.80
2022-08-29T11:39:41.162Z,30.90
2022-08-29T11:42:11.469Z,30.90
2022-08-29T11:44:55.296Z,30.90
2022-08-29T11:47:41.463Z,30.80
2022-08-29T11:50:15.279Z,30.80
2022-08-29T11:53:06.121Z,30.80
2022-08-29T11:55:37.235Z,30.70
2022-08-29T11:58:25.159Z,30.90
2022-08-29T12:01:00.147Z,31.00
2022-08-29T12:03:37.443Z,31.00
2022-08-29T12:06:24.240Z,31.10
2022-08-29T12:09:14.174Z,31.00
2022-08-29T12:12:06.266Z,31.00
2022-08-29T12:14:38.062Z,30.90
2022-08-29T12:17:51.339Z,30.90
2022-08-29T12:20:32.237Z,30.90
2022-08-29T12:23:15.342Z,31.00
2022-08-29T12:26:15.962Z,31.10
2022-08-29T12:28:58.217Z,31.10
2022-08-29T12:32:17.924Z,31.10
2022-08-29T12:35:11.066Z,31.00
2022-08-29T12:38:09.256Z,31.10
2022-08-29T12:40:57.199Z,31.10
2022-08-29T12:43:44.009Z,30.70
2022-08-29T12:46:26.298Z,30.50
2022-08-29T12:49:23.162Z,30.30
2022-08-29T12:52:05.439Z,30.20
2022-08-29T12:54:39.411Z,30.10
2022-08-29T12:57:09.150Z,30.10
2022-08-29T12:59:45.320Z,30.00
2022-08-29T13:02:35.111Z,29.90
2022-08-29T13:05:19.907Z,29.90
2022-08-29T13:08:11.117Z,29.70
2022-08-29T13:11:13.097Z,29.40
2022-08-29T13:13:43.209Z,29.20
2022-08-29T13:16:24.150Z,29.10
2022-08-29T13:19:09.998Z,29.10
2022-08-29T13:21:38.922Z,29.10
2022-08-29T13:24:24.370Z,29.00
2022-08-29T13:27:04.867Z,28.90
2022-08-29T13:29:41.983Z,28.70
2022-08-29T13:32:26.996Z,28.40
2022-08-29T13:35:03.322Z,28.30
2022-08-29T13:37:36.269Z,28.20
2022-08-29T13:40:41.901Z,28.20
2022-08-29T13:43:37.331Z,28.10
2022-08-29T13:46:15.536Z,28.10
2022-08-29T13:48:44.148Z,28.10
2022-08-29T13:51:11.515Z,28.10
2022-08-29T13:53:38.848Z,28.20
2022-08-29T13:56:22.138Z,28.20
2022-08-29T13:58:51.296Z,28.10
2022-08-29T14:01:30.429Z,28.00
2022-08-29T14:04:15.257Z,28.00
2022-08-29T14:06:50.880Z,27.70
2022-08-29T14:09:35.052Z,27.60
2022-08-29T14:12:02.772Z,27.50
2022-08-29T14:14:29.963Z,27.40
2022-08-29T14:17:00.041Z,27.30
2022-08-29T14:19:31.017Z,27.20
2022-08-29T14:22:02.160Z,27.10
2022-08-29T14:24:33.987Z,27.00
2022-08-29T14:27:04.473Z,27.00
2022-08-29T14:29:35.007Z,27.00
2022-08-29T14:32:05.059Z,26.90
2022-08-29T14:34:34.458Z,26.90
2022-08-29T14:37:05.169Z,26.80
2022-08-29T14:39:33.340Z,26.70
2022-08-29T14:42:04.024Z,26.60
2022-08-29T14:44:34.078Z,26.60
2022-08-29T14:47:00.985Z,26.50
2022-08-29T14:49:27.999Z,26.40
2022-08-29T14:51:54.948Z,26.30
2022-08-29T14:54:21.892Z,26.20
2022-08-29T14:56:50.105Z,26.10
2022-08-29T14:59:19.519Z,26.10
2022-08-29T15:01:52.673Z,26.10
2022-08-29T15:04:36.202Z,26.00
2022-08-29T15:07:10.297Z,26.00
2022-08-29T15:09:38.475Z,26.00
2022-08-29T15:12:05.952Z,26.00
2022-08-29T15:14:34.551Z,25.90
2022-08-29T15:17:02.464Z,25.90
2022-08-29T15:22:16.910Z,25.70
2022-08-29T15:24:44.356Z,25.60
2022-08-29T15:27:12.546Z,25.60
2022-08-29T15:29:40.961Z,25.60
2022-08-29T15:32:08.406Z,25.60
2022-08-29T15:34:35.654Z,25.50
2022-08-29T15:37:05.627Z,25.30
2022-08-29T15:39:32.653Z,25.20
2022-08-29T15:42:02.424Z,25.00
2022-08-29T15:44:29.673Z,24.90
2022-08-29T15:46:57.474Z,24.90
2022-08-29T15:49:26.580Z,24.80
2022-08-29T15:51:54.875Z,24.90
2022-08-29T15:54:23.180Z,24.80
2022-08-29T15:56:50.727Z,24.80
2022-08-29T15:59:18.268Z,24.70
2022-08-29T16:01:53.855Z,24.50
2022-08-29T16:04:24.748Z,24.50
2022-08-29T16:06:52.815Z,24.50
2022-08-29T16:09:20.956Z,24.40
2022-08-29T16:11:51.464Z,24.20
2022-08-29T16:14:57.540Z,24.20
2022-08-29T16:17:07.198Z,24.20
2022-08-29T16:19:37.387Z,24.20
2022-08-29T16:22:06.610Z,24.10
2022-08-29T16:24:39.213Z,24.10
2022-08-29T16:27:07.135Z,24.10
2022-08-29T16:29:35.140Z,24.00
2022-08-29T16:32:02.359Z,23.90
2022-08-29T16:34:30.359Z,23.90
2022-08-29T16:37:03.196Z,23.70
2022-08-29T16:39:31.220Z,23.70
2022-08-29T16:41:59.146Z,23.60
2022-08-29T16:44:26.354Z,23.50
2022-08-29T16:46:53.413Z,23.40
2022-08-29T16:49:20.416Z,23.40
2022-08-29T16:51:47.605Z,23.40
2022-08-29T16:54:16.184Z,23.40
2022-08-29T16:56:45.664Z,23.30
2022-08-29T16:59:13.625Z,23.30
2022-08-29T17:01:45.525Z,23.20
2022-08-29T17:04:20.396Z,23.20
2022-08-29T17:06:50.605Z,23.10
2022-08-29T17:09:20.485Z,23.00
2022-08-29T17:11:48.080Z,22.90
2022-08-29T17:14:16.491Z,22.80
2022-08-29T17:16:46.017Z,22.80
2022-08-29T17:19:14.923Z,22.80
2022-08-29T17:21:43.542Z,22.70
2022-08-29T17:24:11.132Z,22.60
2022-08-29T17:26:40.800Z,22.60
2022-08-29T17:29:09.545Z,22.50
2022-08-29T17:31:38.662Z,22.40
2022-08-29T17:34:07.518Z,22.30
2022-08-29T17:36:40.686Z,22.30
2022-08-29T17:39:11.284Z,22.20
2022-08-29T17:41:41.637Z,22.20
2022-08-29T17:44:11.909Z,22.10
2022-08-29T17:46:38.954Z,22.10
2022-08-29T17:49:08.334Z,22.00
2022-08-29T17:51:35.822Z,22.00
2022-08-29T17:54:06.918Z,22.00
2022-08-29T17:56:55.615Z,21.90
2022-08-29T17:59:24.260Z,21.80
2022-08-29T18:01:51.263Z,21.80
2022-08-29T18:04:19.676Z,21.70
2022-08-29T18:06:47.286Z,21.70
2022-08-29T18:09:14.768Z,21.70
2022-08-29T18:11:45.924Z,21.60
2022-08-29T18:14:13.232Z,21.50
2022-08-29T18:16:40.274Z,21.50
2022-08-29T18:19:07.982Z,21.40
2022-08-29T18:21:36.116Z,21.30
2022-08-29T18:24:04.001Z,21.20
2022-08-29T18:26:33.707Z,21.20
2022-08-29T18:29:01.340Z,21.10
2022-08-29T18:31:28.335Z,21.00
2022-08-29T18:34:02.590Z,21.00
2022-08-29T18:36:35.648Z,20.90
2022-08-29T18:39:05.427Z,20.90
2022-08-29T18:41:33.096Z,20.80
2022-08-29T18:44:01.402Z,20.80
2022-08-29T18:46:29.132Z,20.80
2022-08-29T18:48:57.565Z,20.70
2022-08-29T18:51:26.961Z,20.70
2022-08-29T18:53:58.243Z,20.60
2022-08-29T18:56:26.777Z,20.60
2022-08-29T18:58:58.797Z,20.60
2022-08-29T19:01:28.698Z,20.50
2022-08-29T19:03:58.053Z,20.50
2022-08-29T19:06:26.112Z,20.50
2022-08-29T19:08:54.270Z,20.50
2022-08-29T19:11:21.321Z,20.50
2022-08-29T19:13:52.278Z,20.50
2022-08-29T19:16:21.233Z,20.40
2022-08-29T19:18:48.517Z,20.40
2022-08-29T19:21:15.451Z,20.40
2022-08-29T19:23:45.614Z,20.30
2022-08-29T19:26:29.911Z,20.30
2022-08-29T19:28:59.460Z,20.30
2022-08-29T19:31:27.854Z,20.30
2022-08-29T19:33:55.220Z,20.30
2022-08-29T19:36:23.556Z,20.30
2022-08-29T19:38:51.147Z,20.30
2022-08-29T19:41:18.690Z,20.30
2022-08-29T19:43:46.154Z,20.30
2022-08-29T19:46:18.078Z,20.30
2022-08-29T19:48:48.606Z,20.30
2022-08-29T19:51:21.259Z,20.30
2022-08-29T19:53:48.627Z,20.30
2022-08-29T19:56:17.902Z,20.20
2022-08-29T19:58:46.250Z,20.20
2022-08-29T20:01:13.285Z,20.20
2022-08-29T20:03:42.053Z,20.20
2022-08-29T20:06:09.940Z,20.20
2022-08-29T20:08:41.642Z,20.20
2022-08-29T20:11:21.186Z,20.20
2022-08-29T20:13:51.204Z,20.20
2022-08-29T20:16:22.684Z,20.10
2022-08-29T20:18:50.708Z,20.10
2022-08-29T20:21:19.541Z,20.20
2022-08-29T20:23:49.869Z,20.20
2022-08-29T20:26:19.297Z,20.10
2022-08-29T20:28:47.509Z,20.10
2022-08-29T20:31:16.763Z,20.10
2022-08-29T20:33:45.012Z,20.10
2022-08-29T20:36:30.801Z,20.10
2022-08-29T20:39:00.628Z,20.10
2022-08-29T20:41:28.619Z,20.10
2022-08-29T20:43:55.622Z,20.10
2022-08-29T20:46:22.610Z,20.10
2022-08-29T20:48:49.682Z,20.10
2022-08-29T20:51:16.614Z,20.10
2022-08-29T20:53:43.862Z,20.10
2022-08-29T20:56:11.277Z,20.10
2022-08-29T20:58:38.375Z,20.10
2022-08-29T21:01:05.609Z,20.10
2022-08-29T21:03:52.775Z,20.10
2022-08-29T21:06:20.515Z,20.10
2022-08-29T21:08:48.843Z,20.10
2022-08-29T21:11:16.392Z,20.10
2022-08-29T21:13:43.590Z,20.10
2022-08-29T21:16:11.370Z,20.10
2022-08-29T21:18:39.163Z,20.10
2022-08-29T21:21:06.536Z,20.10
2022-08-29T21:23:34.427Z,20.10
2022-08-29T21:26:02.076Z,20.10
2022-08-29T21:28:32.870Z,20.10
2022-08-29T21:31:08.368Z,20.10
2022-08-29T21:33:40.393Z,20.10
2022-08-29T21:36:15.404Z,20.10
2022-08-29T21:38:42.361Z,20.10
2022-08-29T21:41:11.055Z,20.20
2022-08-29T21:43:40.688Z,20.10
2022-08-29T21:46:19.513Z,20.10
2022-08-29T21:48:47.138Z,20.10
2022-08-29T21:51:18.715Z,20.10
2022-08-29T21:53:47.532Z,20.10
2022-08-29T21:56:15.052Z,20.10
2022-08-29T21:58:42.280Z,20.20
2022-08-29T22:01:12.254Z,20.20
2022-08-29T22:03:39.754Z,20.10
2022-08-29T22:06:08.346Z,20.10
2022-08-29T22:08:38.556Z,20.10
2022-08-29T22:11:22.132Z,20.20
2022-08-29T22:13:50.795Z,20.20
2022-08-29T22:16:30.164Z,20.20
2022-08-29T22:19:12.498Z,20.10
2022-08-29T22:21:46.801Z,20.10
2022-08-29T22:24:16.458Z,20.10
2022-08-29T22:26:44.768Z,20.00
2022-08-29T22:29:14.224Z,20.00
2022-08-29T22:31:42.476Z,20.00
2022-08-29T22:34:11.482Z,19.90
2022-08-29T22:36:38.466Z,19.90
2022-08-29T22:39:05.479Z,19.90
2022-08-29T22:41:32.831Z,19.80
2022-08-29T22:44:47.151Z,19.80
2022-08-29T22:46:48.883Z,19.70
2022-08-29T22:49:16.121Z,19.70
2022-08-29T22:51:43.018Z,19.70
2022-08-29T22:54:28.308Z,19.70
2022-08-29T22:56:55.294Z,19.70
2022-08-29T22:59:22.819Z,19.70
2022-08-29T23:01:49.791Z,19.70
2022-08-29T23:04:16.916Z,19.70
2022-08-29T23:06:44.071Z,19.60
2022-08-29T23:09:11.037Z,19.60
2022-08-29T23:11:38.282Z,19.60
2022-08-29T23:14:06.504Z,19.60
2022-08-29T23:16:35.690Z,19.60
2022-08-29T23:19:03.476Z,19.50
2022-08-29T23:21:31.639Z,19.50
2022-08-29T23:23:59.246Z,19.50
2022-08-29T23:26:27.211Z,19.50
2022-08-29T23:28:55.030Z,19.50
2022-08-29T23:31:23.032Z,19.40
2022-08-29T23:33:50.684Z,19.40
2022-08-29T23:36:18.728Z,19.40
2022-08-29T23:38:46.033Z,19.40
2022-08-29T23:41:13.728Z,19.40
2022-08-29T23:43:41.323Z,19.40
2022-08-29T23:46:08.709Z,19.40
2022-08-29T23:48:35.992Z,19.40
2022-08-29T23:51:08.944Z,19.30
2022-08-29T23:53:36.248Z,19.30
2022-08-29T23:56:12.484Z,19.30
2022-08-29T23:58:40.139Z,19.30
